Time,TemperatureF,DewpointF,PressureIn,WindDirection,WindDirectionDegrees,WindSpeedMPH,WindSpeedGustMPH,Humidity,HourlyPrecipIn,Conditions,Clouds,dailyrainin,SolarRadiationWatts/m^2,SoftwareType,DateUTC
2013-02-24 00:00:00,40.1,33.8,29.99,NNW,336,0.0,2.0,78,0.00,,,0.00,0,HR-IXPWINDi_r2_v1.2.,2013-02-24 08:00:00,
2013-02-24 00:05:00,40.2,33.9,29.99,WNW,294,2.0,4.0,78,0.00,,,0.00,0,HR-IXPWINDi_r2_v1.2.,2013-02-24 08:05:00,
2013-02-24 00:10:00,40.7,33.4,29.99,WNW,294,2.0,4.0,75,0.00,,,0.00,0,HR-IXPWINDi_r2_v1.2.,2013-02-24 08:10:00,
2013-02-24 00:15:00,40.3,33.6,30.00,NNW,327,0.0,3.0,77,0.00,,,0.00,0,HR-IXPWINDi_r2_v1.2.,2013-02-24 08:15:00,
2013-02-24 00:20:00,40.2,33.5,30.00,WNW,288,3.0,4.0,77,0.00,,,0.00,0,HR-IXPWINDi_r2_v1.2.,2013-02-24 08:20:00,
2013-02-24 00:25:00,40.8,33.1,30.00,WNW,288,0.0,4.0,74,0.00,,,0.00,0,HR-IXPWINDi_r2_v1.2.,2013-02-24 08:25:00,
2013-02-24 00:31:00,40.1,33.4,30.00,WNW,288,0.0,3.0,77,0.00,,,0.00,0,HR-IXPWINDi_r2_v1.2.,2013-02-24 08:31:00,
2013-02-24 00:36:00,39.7,33.4,30.00,West,277,1.0,3.0,78,0.00,,,0.00,0,HR-IXPWINDi_r2_v1.2.,2013-02-24 08:36:00,
2013-02-24 00:42:00,40.3,33.0,30.01,NNE,20,2.0,3.0,75,0.00,,,0.00,0,HR-IXPWINDi_r2_v1.2.,2013-02-24 08:42:00,
2013-02-24 00:48:00,40.2,33.2,30.01,NW,312,3.0,5.0,76,0.00,,,0.00,0,HR-IXPWINDi_r2_v1.2.,2013-02-24 08:48:00,
2013-02-24 00:53:00,41.7,33.0,30.01,NW,314,1.0,5.0,71,0.00,,,0.00,0,HR-IXPWINDi_r2_v1.2.,2013-02-24 08:53:00,
2013-02-24 00:58:00,41.0,33.0,30.01,NW,314,0.0,5.0,73,0.00,,,0.00,0,HR-IXPWINDi_r2_v1.2.,2013-02-24 08:58:00,
2013-02-24 01:03:00,40.3,32.3,30.01,NW,314,0.0,2.0,73,0.00,,,0.00,0,HR-IXPWINDi_r2_v1.2.,2013-02-24 09:03:00,
2013-02-24 01:08:00,40.4,32.4,30.01,NE,38,0.0,3.0,73,0.00,,,0.00,0,HR-IXPWINDi_r2_v1.2.,2013-02-24 09:08:00,
2013-02-24 01:14:00,41.2,32.5,30.01,WNW,293,1.0,3.0,71,0.00,,,0.00,0,HR-IXPWINDi_r2_v1.2.,2013-02-24 09:14:00,
2013-02-24 01:19:00,40.8,32.4,30.02,WNW,285,4.0,5.0,72,0.00,,,0.00,0,HR-IXPWINDi_r2_v1.2.,2013-02-24 09:19:00,
2013-02-24 01:24:00,41.4,32.3,30.02,WNW,288,2.0,5.0,70,0.00,,,0.00,0,HR-IXPWINDi_r2_v1.2.,2013-02-24 09:24:00,
2013-02-24 01:29:00,40.5,32.2,30.02,WNW,288,2.0,5.0,72,0.00,,,0.00,0,HR-IXPWINDi_r2_v1.2.,2013-02-24 09:29:00,
2013-02-24 01:34:00,40.8,32.4,30.01,WNW,289,0.0,3.0,72,0.00,,,0.00,0,HR-IXPWINDi_r2_v1.2.,2013-02-24 09:34:00,
2013-02-24 01:40:00,40.5,32.5,30.01,NW,319,0.0,3.0,73,0.00,,,0.00,0,HR-IXPWINDi_r2_v1.2.,2013-02-24 09:40:00,
2013-02-24 01:45:00,40.7,32.3,30.02,South,173,3.0,3.0,72,0.00,,,0.00,0,HR-IXPWINDi_r2_v1.2.,2013-02-24 09:45:00,
2013-02-24 01:50:00,40.8,32.1,30.02,South,173,1.0,3.0,71,0.00,,,0.00,0,HR-IXPWINDi_r2_v1.2.,2013-02-24 09:50:00,
2013-02-24 01:55:00,40.6,31.9,30.02,WSW,246,0.0,3.0,71,0.00,,,0.00,0,HR-IXPWINDi_r2_v1.2.,2013-02-24 09:55:00,
2013-02-24 02:01:00,40.5,32.5,30.02,West,261,1.0,3.0,73,0.00,,,0.00,0,HR-IXPWINDi_r2_v1.2.,2013-02-24 10:01:00,
2013-02-24 02:06:00,40.5,32.2,30.02,NW,317,2.0,4.0,72,0.00,,,0.00,0,HR-IXPWINDi_r2_v1.2.,2013-02-24 10:06:00,
2013-02-24 02:11:00,41.3,32.2,30.02,NW,315,3.0,4.0,70,0.00,,,0.00,0,HR-IXPWINDi_r2_v1.2.,2013-02-24 10:11:00,
2013-02-24 02:16:00,41.0,31.9,30.02,NW,307,1.0,4.0,70,0.00,,,0.00,0,HR-IXPWINDi_r2_v1.2.,2013-02-24 10:16:00,
2013-02-24 02:22:00,40.1,32.1,30.02,NW,308,0.0,3.0,73,0.00,,,0.00,0,HR-IXPWINDi_r2_v1.2.,2013-02-24 10:22:00,
2013-02-24 02:27:00,40.6,31.9,30.02,WNW,295,3.0,4.0,71,0.00,,,0.00,0,HR-IXPWINDi_r2_v1.2.,2013-02-24 10:27:00,
2013-02-24 02:32:00,40.8,31.7,30.02,NW,321,2.0,4.0,70,0.00,,,0.00,0,HR-IXPWINDi_r2_v1.2.,2013-02-24 10:32:00,
2013-02-24 02:38:00,40.7,31.7,30.02,WNW,294,2.0,5.0,70,0.00,,,0.00,0,HR-IXPWINDi_r2_v1.2.,2013-02-24 10:38:00,
2013-02-24 02:43:00,42.2,30.9,30.01,NW,311,2.0,5.0,64,0.00,,,0.00,0,HR-IXPWINDi_r2_v1.2.,2013-02-24 10:43:00,
2013-02-24 02:48:00,42.4,30.7,30.02,North,355,2.0,4.0,63,0.00,,,0.00,0,HR-IXPWINDi_r2_v1.2.,2013-02-24 10:48:00,
2013-02-24 02:53:00,42.1,30.4,30.02,WNW,295,5.0,5.0,63,0.00,,,0.00,0,HR-IXPWINDi_r2_v1.2.,2013-02-24 10:53:00,
2013-02-24 02:58:00,42.4,30.3,30.03,WNW,292,5.0,8.0,62,0.00,,,0.00,0,HR-IXPWINDi_r2_v1.2.,2013-02-24 10:58:00,
2013-02-24 03:04:00,42.9,30.4,30.03,North,5,4.0,8.0,61,0.00,,,0.00,0,HR-IXPWINDi_r2_v1.2.,2013-02-24 11:04:00,
2013-02-24 03:09:00,42.5,30.0,30.03,NW,313,1.0,7.0,61,0.00,,,0.00,0,HR-IXPWINDi_r2_v1.2.,2013-02-24 11:09:00,
2013-02-24 03:14:00,41.9,30.2,30.03,WNW,286,2.0,7.0,63,0.00,,,0.00,0,HR-IXPWINDi_r2_v1.2.,2013-02-24 11:14:00,
2013-02-24 03:20:00,41.6,30.3,30.03,NW,324,1.0,3.0,64,0.00,,,0.00,0,HR-IXPWINDi_r2_v1.2.,2013-02-24 11:20:00,
2013-02-24 03:25:00,41.1,30.6,30.03,NW,325,4.0,4.0,66,0.00,,,0.00,0,HR-IXPWINDi_r2_v1.2.,2013-02-24 11:25:00,
2013-02-24 03:30:00,40.6,30.8,30.03,NE,40,1.0,6.0,68,0.00,,,0.00,0,HR-IXPWINDi_r2_v1.2.,2013-02-24 11:30:00,
2013-02-24 03:35:00,41.3,30.8,30.03,NW,323,2.0,6.0,66,0.00,,,0.00,0,HR-IXPWINDi_r2_v1.2.,2013-02-24 11:35:00,
2013-02-24 03:40:00,45.3,33.4,30.02,NNW,332,1.0,7.0,63,0.00,,,0.00,0,HR-IXPWINDi_r2_v1.2.,2013-02-24 11:40:00,
2013-02-24 03:45:00,48.3,33.3,30.02,NNW,337,6.0,10.0,56,0.00,,,0.00,0,HR-IXPWINDi_r2_v1.2.,2013-02-24 11:45:00,
2013-02-24 03:50:00,47.3,31.0,30.02,NW,315,1.0,10.0,53,0.00,,,0.00,0,HR-IXPWINDi_r2_v1.2.,2013-02-24 11:50:00,
2013-02-24 03:55:00,46.1,30.4,30.02,NW,310,3.0,6.0,54,0.00,,,0.00,0,HR-IXPWINDi_r2_v1.2.,2013-02-24 11:55:00,
2013-02-24 04:01:00,46.2,31.3,30.02,NNE,13,0.0,4.0,56,0.00,,,0.00,0,HR-IXPWINDi_r2_v1.2.,2013-02-24 12:01:00,
2013-02-24 04:06:00,48.6,32.7,30.03,NW,311,2.0,6.0,54,0.00,,,0.00,0,HR-IXPWINDi_r2_v1.2.,2013-02-24 12:06:00,
2013-02-24 04:11:00,47.5,31.7,30.03,East,90,2.0,6.0,54,0.00,,,0.00,0,HR-IXPWINDi_r2_v1.2.,2013-02-24 12:11:00,
2013-02-24 04:16:00,49.0,32.6,30.03,NNW,336,4.0,8.0,53,0.00,,,0.00,0,HR-IXPWINDi_r2_v1.2.,2013-02-24 12:16:00,
2013-02-24 04:21:00,47.0,31.2,30.04,North,355,1.0,8.0,54,0.00,,,0.00,0,HR-IXPWINDi_r2_v1.2.,2013-02-24 12:21:00,
2013-02-24 04:27:00,44.5,30.6,30.04,NNW,333,1.0,4.0,58,0.00,,,0.00,0,HR-IXPWINDi_r2_v1.2.,2013-02-24 12:27:00,
2013-02-24 04:32:00,42.9,30.8,30.04,NW,315,2.0,5.0,62,0.00,,,0.00,0,HR-IXPWINDi_r2_v1.2.,2013-02-24 12:32:00,
2013-02-24 04:37:00,42.2,30.9,30.04,NW,309,0.0,5.0,64,0.00,,,0.00,0,HR-IXPWINDi_r2_v1.2.,2013-02-24 12:37:00,
2013-02-24 04:42:00,42.1,31.2,30.04,NW,316,3.0,4.0,65,0.00,,,0.00,0,HR-IXPWINDi_r2_v1.2.,2013-02-24 12:42:00,
2013-02-24 04:47:00,43.0,31.6,30.04,WNW,295,2.0,5.0,64,0.00,,,0.00,0,HR-IXPWINDi_r2_v1.2.,2013-02-24 12:47:00,
2013-02-24 04:53:00,44.0,32.6,30.04,NE,41,0.0,5.0,64,0.00,,,0.00,0,HR-IXPWINDi_r2_v1.2.,2013-02-24 12:53:00,
2013-02-24 04:58:00,45.5,32.8,30.04,NNW,338,1.0,3.0,61,0.00,,,0.00,0,HR-IXPWINDi_r2_v1.2.,2013-02-24 12:58:00,
2013-02-24 05:03:00,47.9,33.4,30.04,NNW,333,2.0,3.0,57,0.00,,,0.00,0,HR-IXPWINDi_r2_v1.2.,2013-02-24 13:03:00,
2013-02-24 05:08:00,49.1,33.1,30.04,NW,323,2.0,6.0,54,0.00,,,0.00,0,HR-IXPWINDi_r2_v1.2.,2013-02-24 13:08:00,
2013-02-24 05:13:00,49.6,32.7,30.05,NNW,333,1.0,6.0,52,0.00,,,0.00,0,HR-IXPWINDi_r2_v1.2.,2013-02-24 13:13:00,
2013-02-24 05:19:00,50.2,32.2,30.05,NW,315,3.0,6.0,50,0.00,,,0.00,0,HR-IXPWINDi_r2_v1.2.,2013-02-24 13:19:00,
2013-02-24 05:24:00,50.6,32.1,30.05,WNW,288,0.0,5.0,49,0.00,,,0.00,0,HR-IXPWINDi_r2_v1.2.,2013-02-24 13:24:00,
2013-02-24 05:29:00,50.8,31.8,30.05,NNW,340,1.0,5.0,48,0.00,,,0.00,0,HR-IXPWINDi_r2_v1.2.,2013-02-24 13:29:00,
2013-02-24 05:34:00,51.0,30.9,30.05,NE,44,2.0,5.0,46,0.00,,,0.00,0,HR-IXPWINDi_r2_v1.2.,2013-02-24 13:34:00,
2013-02-24 05:40:00,50.9,31.4,30.05,ENE,57,5.0,9.0,47,0.00,,,0.00,0,HR-IXPWINDi_r2_v1.2.,2013-02-24 13:40:00,
2013-02-24 05:45:00,50.9,30.3,30.05,NE,48,5.0,9.0,45,0.00,,,0.00,0,HR-IXPWINDi_r2_v1.2.,2013-02-24 13:45:00,
2013-02-24 05:50:00,50.6,29.5,30.05,NNW,330,3.0,7.0,44,0.00,,,0.00,0,HR-IXPWINDi_r2_v1.2.,2013-02-24 13:50:00,
2013-02-24 05:56:00,50.9,28.6,30.06,NW,326,8.0,11.0,42,0.00,,,0.00,0,HR-IXPWINDi_r2_v1.2.,2013-02-24 13:56:00,
2013-02-24 06:01:00,51.5,27.3,30.06,NNE,12,1.0,11.0,39,0.00,,,0.00,0,HR-IXPWINDi_r2_v1.2.,2013-02-24 14:01:00,
2013-02-24 06:06:00,51.5,25.4,30.06,East,101,0.0,9.0,36,0.00,,,0.00,0,HR-IXPWINDi_r2_v1.2.,2013-02-24 14:06:00,
2013-02-24 06:11:00,51.1,23.7,30.07,NW,318,3.0,6.0,34,0.00,,,0.00,0,HR-IXPWINDi_r2_v1.2.,2013-02-24 14:11:00,
2013-02-24 06:16:00,51.0,23.6,30.07,North,9,4.0,6.0,34,0.00,,,0.00,0,HR-IXPWINDi_r2_v1.2.,2013-02-24 14:16:00,
2013-02-24 06:22:00,50.7,27.2,30.07,NE,42,0.0,6.0,40,0.00,,,0.00,0,HR-IXPWINDi_r2_v1.2.,2013-02-24 14:22:00,
2013-02-24 06:27:00,50.1,24.8,30.08,East,87,0.0,3.0,37,0.00,,,0.00,0,HR-IXPWINDi_r2_v1.2.,2013-02-24 14:27:00,
2013-02-24 06:32:00,50.0,22.7,30.08,South,190,3.0,5.0,34,0.00,,,0.00,5,HR-IXPWINDi_r2_v1.2.,2013-02-24 14:32:00,
2013-02-24 06:37:00,50.2,20.7,30.08,SSE,149,0.0,6.0,31,0.00,,,0.00,7,HR-IXPWINDi_r2_v1.2.,2013-02-24 14:37:00,
2013-02-24 06:42:00,50.5,21.7,30.08,SSE,159,2.0,6.0,32,0.00,,,0.00,11,HR-IXPWINDi_r2_v1.2.,2013-02-24 14:42:00,
2013-02-24 06:48:00,50.6,21.1,30.08,East,101,2.0,5.0,31,0.00,,,0.00,12,HR-IXPWINDi_r2_v1.2.,2013-02-24 14:48:00,
2013-02-24 06:53:00,50.7,21.9,30.08,NE,46,0.0,5.0,32,0.00,,,0.00,14,HR-IXPWINDi_r2_v1.2.,2013-02-24 14:53:00,
2013-02-24 06:58:00,49.8,21.8,30.09,SE,128,1.0,3.0,33,0.00,,,0.00,16,HR-IXPWINDi_r2_v1.2.,2013-02-24 14:58:00,
2013-02-24 07:03:00,50.4,21.6,30.09,South,189,1.0,5.0,32,0.00,,,0.00,44,HR-IXPWINDi_r2_v1.2.,2013-02-24 15:03:00,
2013-02-24 07:08:00,51.0,21.4,30.09,SSE,155,0.0,6.0,31,0.00,,,0.00,69,HR-IXPWINDi_r2_v1.2.,2013-02-24 15:08:00,
2013-02-24 07:14:00,51.5,21.1,30.09,SE,135,3.0,6.0,30,0.00,,,0.00,84,HR-IXPWINDi_r2_v1.2.,2013-02-24 15:14:00,
2013-02-24 07:19:00,51.5,23.3,30.10,NE,40,1.0,5.0,33,0.00,,,0.00,104,HR-IXPWINDi_r2_v1.2.,2013-02-24 15:19:00,
2013-02-24 07:24:00,52.6,21.2,30.10,SE,128,2.0,4.0,29,0.00,,,0.00,116,HR-IXPWINDi_r2_v1.2.,2013-02-24 15:24:00,
2013-02-24 07:29:00,53.3,20.2,30.10,SSE,154,1.0,8.0,27,0.00,,,0.00,132,HR-IXPWINDi_r2_v1.2.,2013-02-24 15:29:00,
2013-02-24 07:35:00,53.4,21.9,30.11,ESE,103,0.0,8.0,29,0.00,,,0.00,163,HR-IXPWINDi_r2_v1.2.,2013-02-24 15:35:00,
2013-02-24 07:40:00,53.7,20.5,30.11,East,80,3.0,5.0,27,0.00,,,0.00,199,HR-IXPWINDi_r2_v1.2.,2013-02-24 15:40:00,
2013-02-24 07:46:00,54.2,24.2,30.11,NNE,32,2.0,9.0,31,0.00,,,0.00,77,HR-IXPWINDi_r2_v1.2.,2013-02-24 15:46:00,
2013-02-24 07:51:00,54.5,22.9,30.12,NNE,21,3.0,9.0,29,0.00,,,0.00,63,HR-IXPWINDi_r2_v1.2.,2013-02-24 15:51:00,
2013-02-24 07:56:00,54.7,23.1,30.12,ESE,121,9.0,9.0,29,0.00,,,0.00,114,HR-IXPWINDi_r2_v1.2.,2013-02-24 15:56:00,
2013-02-24 08:01:00,54.5,19.4,30.12,NE,52,2.0,9.0,25,0.00,,,0.00,100,HR-IXPWINDi_r2_v1.2.,2013-02-24 16:01:00,
2013-02-24 08:06:00,54.6,20.4,30.12,South,186,2.0,9.0,26,0.00,,,0.00,69,HR-IXPWINDi_r2_v1.2.,2013-02-24 16:06:00,
2013-02-24 08:11:00,54.7,20.5,30.12,East,97,2.0,9.0,26,0.00,,,0.00,91,HR-IXPWINDi_r2_v1.2.,2013-02-24 16:11:00,
2013-02-24 08:17:00,54.9,20.7,30.13,East,94,3.0,6.0,26,0.00,,,0.00,83,HR-IXPWINDi_r2_v1.2.,2013-02-24 16:17:00,
2013-02-24 08:22:00,55.0,18.9,30.12,East,83,1.0,6.0,24,0.00,,,0.00,56,HR-IXPWINDi_r2_v1.2.,2013-02-24 16:22:00,
2013-02-24 08:27:00,55.1,19.9,30.12,ENE,67,2.0,6.0,25,0.00,,,0.00,90,HR-IXPWINDi_r2_v1.2.,2013-02-24 16:27:00,
2013-02-24 08:33:00,55.5,22.1,30.13,ESE,107,1.0,11.0,27,0.00,,,0.00,60,HR-IXPWINDi_r2_v1.2.,2013-02-24 16:33:00,
2013-02-24 08:38:00,55.6,21.3,30.12,South,188,5.0,11.0,26,0.00,,,0.00,56,HR-IXPWINDi_r2_v1.2.,2013-02-24 16:38:00,
2013-02-24 08:43:00,56.1,21.7,30.13,East,101,7.0,9.0,26,0.00,,,0.00,58,HR-IXPWINDi_r2_v1.2.,2013-02-24 16:43:00,
2013-02-24 08:48:00,56.6,20.2,30.13,SE,137,4.0,9.0,24,0.00,,,0.00,81,HR-IXPWINDi_r2_v1.2.,2013-02-24 16:48:00,
2013-02-24 08:53:00,56.5,17.0,30.12,ESE,111,3.0,11.0,21,0.00,,,0.00,60,HR-IXPWINDi_r2_v1.2.,2013-02-24 16:53:00,
2013-02-24 08:58:00,56.3,20.0,30.13,North,360,10.0,11.0,24,0.00,,,0.00,58,HR-IXPWINDi_r2_v1.2.,2013-02-24 16:58:00,
2013-02-24 09:03:00,56.6,18.2,30.13,East,92,3.0,11.0,22,0.00,,,0.00,53,HR-IXPWINDi_r2_v1.2.,2013-02-24 17:03:00,
2013-02-24 09:09:00,56.8,18.4,30.13,South,175,2.0,11.0,22,0.00,,,0.00,121,HR-IXPWINDi_r2_v1.2.,2013-02-24 17:09:00,
2013-02-24 09:14:00,57.2,18.7,30.13,NE,42,2.0,10.0,22,0.00,,,0.00,202,HR-IXPWINDi_r2_v1.2.,2013-02-24 17:14:00,
2013-02-24 09:19:00,57.2,17.6,30.13,NNE,33,4.0,11.0,21,0.00,,,0.00,97,HR-IXPWINDi_r2_v1.2.,2013-02-24 17:19:00,
2013-02-24 09:24:00,57.4,19.9,30.13,WSW,252,1.0,11.0,23,0.00,,,0.00,67,HR-IXPWINDi_r2_v1.2.,2013-02-24 17:24:00,
2013-02-24 09:30:00,57.7,16.9,30.14,West,271,2.0,10.0,20,0.00,,,0.00,86,HR-IXPWINDi_r2_v1.2.,2013-02-24 17:30:00,
2013-02-24 09:35:00,57.8,18.1,30.14,South,172,5.0,12.0,21,0.00,,,0.00,91,HR-IXPWINDi_r2_v1.2.,2013-02-24 17:35:00,
2013-02-24 09:40:00,57.8,19.2,30.14,NE,55,5.0,12.0,22,0.00,,,0.00,67,HR-IXPWINDi_r2_v1.2.,2013-02-24 17:40:00,
2013-02-24 09:45:00,58.1,18.4,30.14,SW,214,1.0,16.0,21,0.00,,,0.00,63,HR-IXPWINDi_r2_v1.2.,2013-02-24 17:45:00,
2013-02-24 09:50:00,58.5,17.6,30.14,ESE,109,8.0,16.0,20,0.00,,,0.00,72,HR-IXPWINDi_r2_v1.2.,2013-02-24 17:50:00,
2013-02-24 09:55:00,58.7,16.6,30.14,South,172,2.0,12.0,19,0.00,,,0.00,197,HR-IXPWINDi_r2_v1.2.,2013-02-24 17:55:00,
2013-02-24 10:01:00,58.5,17.6,30.14,NNW,338,2.0,13.0,20,0.00,,,0.00,334,HR-IXPWINDi_r2_v1.2.,2013-02-24 18:01:00,
2013-02-24 10:06:00,58.2,16.1,30.13,SSE,154,1.0,13.0,19,0.00,,,0.00,520,HR-IXPWINDi_r2_v1.2.,2013-02-24 18:06:00,
2013-02-24 10:11:00,58.6,16.5,30.13,East,98,3.0,12.0,19,0.00,,,0.00,548,HR-IXPWINDi_r2_v1.2.,2013-02-24 18:11:00,
2013-02-24 10:16:00,58.9,17.9,30.13,South,178,3.0,13.0,20,0.00,,,0.00,543,HR-IXPWINDi_r2_v1.2.,2013-02-24 18:16:00,
2013-02-24 10:21:00,59.4,18.3,30.13,SE,146,3.0,13.0,20,0.00,,,0.00,519,HR-IXPWINDi_r2_v1.2.,2013-02-24 18:21:00,
2013-02-24 10:26:00,60.0,16.4,30.13,South,170,3.0,13.0,18,0.00,,,0.00,512,HR-IXPWINDi_r2_v1.2.,2013-02-24 18:26:00,
2013-02-24 10:32:00,60.6,18.1,30.13,East,80,7.0,14.0,19,0.00,,,0.00,519,HR-IXPWINDi_r2_v1.2.,2013-02-24 18:32:00,
2013-02-24 10:37:00,60.7,17.0,30.13,NE,34,2.0,14.0,18,0.00,,,0.00,543,HR-IXPWINDi_r2_v1.2.,2013-02-24 18:37:00,
2013-02-24 10:42:00,60.4,18.0,30.13,North,10,1.0,14.0,19,0.00,,,0.00,571,HR-IXPWINDi_r2_v1.2.,2013-02-24 18:42:00,
2013-02-24 10:47:00,61.4,17.5,30.13,SSW,192,1.0,14.0,18,0.00,,,0.00,631,HR-IXPWINDi_r2_v1.2.,2013-02-24 18:47:00,
2013-02-24 10:52:00,61.5,20.1,30.13,East,89,7.0,13.0,20,0.00,,,0.00,675,HR-IXPWINDi_r2_v1.2.,2013-02-24 18:52:00,
2013-02-24 10:58:00,62.3,20.7,30.12,NE,52,3.0,13.0,20,0.00,,,0.00,705,HR-IXPWINDi_r2_v1.2.,2013-02-24 18:58:00,
2013-02-24 11:03:00,63.3,19.1,30.12,SE,140,4.0,11.0,18,0.00,,,0.00,731,HR-IXPWINDi_r2_v1.2.,2013-02-24 19:03:00,
2013-02-24 11:08:00,62.2,16.9,30.12,East,92,5.0,11.0,17,0.00,,,0.00,745,HR-IXPWINDi_r2_v1.2.,2013-02-24 19:08:00,
2013-02-24 11:13:00,62.6,15.8,30.12,East,84,1.0,11.0,16,0.00,,,0.00,752,HR-IXPWINDi_r2_v1.2.,2013-02-24 19:13:00,
2013-02-24 11:18:00,63.4,17.8,30.13,ESE,121,8.0,11.0,17,0.00,,,0.00,737,HR-IXPWINDi_r2_v1.2.,2013-02-24 19:18:00,
2013-02-24 11:23:00,63.0,20.1,30.12,South,171,3.0,13.0,19,0.00,,,0.00,705,HR-IXPWINDi_r2_v1.2.,2013-02-24 19:23:00,
2013-02-24 11:29:00,64.5,20.1,30.12,South,173,5.0,13.0,18,0.00,,,0.00,659,HR-IXPWINDi_r2_v1.2.,2013-02-24 19:29:00,
2013-02-24 11:34:00,64.3,19.9,30.12,South,173,2.0,13.0,18,0.00,,,0.00,613,HR-IXPWINDi_r2_v1.2.,2013-02-24 19:34:00,
2013-02-24 11:39:00,64.3,18.6,30.11,South,189,0.0,11.0,17,0.00,,,0.00,589,HR-IXPWINDi_r2_v1.2.,2013-02-24 19:39:00,
2013-02-24 11:44:00,64.7,17.5,30.11,ESE,103,2.0,11.0,16,0.00,,,0.00,591,HR-IXPWINDi_r2_v1.2.,2013-02-24 19:44:00,
2013-02-24 11:49:00,63.7,16.7,30.11,ENE,57,5.0,13.0,16,0.00,,,0.00,631,HR-IXPWINDi_r2_v1.2.,2013-02-24 19:49:00,
2013-02-24 11:55:00,64.0,18.3,30.11,SSW,200,7.0,13.0,17,0.00,,,0.00,680,HR-IXPWINDi_r2_v1.2.,2013-02-24 19:55:00,
2013-02-24 12:00:00,64.6,20.1,30.11,SSE,165,5.0,13.0,18,0.00,,,0.00,728,HR-IXPWINDi_r2_v1.2.,2013-02-24 20:00:00,
2013-02-24 12:05:00,64.6,20.1,30.10,SW,226,4.0,13.0,18,0.00,,,0.00,765,HR-IXPWINDi_r2_v1.2.,2013-02-24 20:05:00,
2013-02-24 12:11:00,64.5,20.1,30.10,SE,139,3.0,15.0,18,0.00,,,0.00,779,HR-IXPWINDi_r2_v1.2.,2013-02-24 20:11:00,
2013-02-24 12:16:00,64.9,17.7,30.10,SSW,202,4.0,15.0,16,0.00,,,0.00,779,HR-IXPWINDi_r2_v1.2.,2013-02-24 20:16:00,
2013-02-24 12:21:00,65.1,16.3,30.10,NE,42,4.0,12.0,15,0.00,,,0.00,775,HR-IXPWINDi_r2_v1.2.,2013-02-24 20:21:00,
2013-02-24 12:26:00,65.8,18.4,30.09,South,178,3.0,12.0,16,0.00,,,0.00,773,HR-IXPWINDi_r2_v1.2.,2013-02-24 20:26:00,
2013-02-24 12:31:00,65.2,17.9,30.09,East,91,3.0,14.0,16,0.00,,,0.00,773,HR-IXPWINDi_r2_v1.2.,2013-02-24 20:31:00,
2013-02-24 12:36:00,65.3,16.5,30.09,East,85,3.0,14.0,15,0.00,,,0.00,772,HR-IXPWINDi_r2_v1.2.,2013-02-24 20:36:00,
2013-02-24 12:42:00,65.3,18.0,30.08,ENE,65,4.0,10.0,16,0.00,,,0.00,766,HR-IXPWINDi_r2_v1.2.,2013-02-24 20:42:00,
2013-02-24 12:47:00,66.6,17.5,30.08,North,360,1.0,10.0,15,0.00,,,0.00,763,HR-IXPWINDi_r2_v1.2.,2013-02-24 20:47:00,
2013-02-24 12:52:00,66.1,15.5,30.08,ESE,117,7.0,14.0,14,0.00,,,0.00,763,HR-IXPWINDi_r2_v1.2.,2013-02-24 20:52:00,
2013-02-24 12:57:00,66.5,21.7,30.07,SE,134,2.0,14.0,18,0.00,,,0.00,756,HR-IXPWINDi_r2_v1.2.,2013-02-24 20:57:00,
2013-02-24 13:02:00,67.1,17.9,30.07,North,350,1.0,12.0,15,0.00,,,0.00,751,HR-IXPWINDi_r2_v1.2.,2013-02-24 21:02:00,
2013-02-24 13:07:00,67.0,17.8,30.06,SE,130,3.0,12.0,15,0.00,,,0.00,735,HR-IXPWINDi_r2_v1.2.,2013-02-24 21:07:00,
2013-02-24 13:12:00,66.6,15.9,30.07,SSW,206,3.0,12.0,14,0.00,,,0.00,714,HR-IXPWINDi_r2_v1.2.,2013-02-24 21:12:00,
2013-02-24 13:17:00,66.1,17.1,30.06,SE,130,9.0,14.0,15,0.00,,,0.00,693,HR-IXPWINDi_r2_v1.2.,2013-02-24 21:17:00,
2013-02-24 13:23:00,66.3,17.3,30.05,West,262,2.0,14.0,15,0.00,,,0.00,675,HR-IXPWINDi_r2_v1.2.,2013-02-24 21:23:00,
2013-02-24 13:28:00,66.3,15.7,30.05,SSW,213,5.0,16.0,14,0.00,,,0.00,668,HR-IXPWINDi_r2_v1.2.,2013-02-24 21:28:00,
2013-02-24 13:33:00,66.5,15.9,30.05,ENE,75,8.0,16.0,14,0.00,,,0.00,673,HR-IXPWINDi_r2_v1.2.,2013-02-24 21:33:00,
2013-02-24 13:38:00,67.2,18.0,30.05,SSW,193,5.0,13.0,15,0.00,,,0.00,684,HR-IXPWINDi_r2_v1.2.,2013-02-24 21:38:00,
2013-02-24 13:43:00,66.9,19.3,30.05,ESE,103,3.0,16.0,16,0.00,,,0.00,693,HR-IXPWINDi_r2_v1.2.,2013-02-24 21:43:00,
2013-02-24 13:49:00,67.4,18.2,30.05,SSE,166,3.0,16.0,15,0.00,,,0.00,686,HR-IXPWINDi_r2_v1.2.,2013-02-24 21:49:00,
2013-02-24 13:54:00,67.5,15.0,30.05,NE,38,2.0,14.0,13,0.00,,,0.00,675,HR-IXPWINDi_r2_v1.2.,2013-02-24 21:54:00,
2013-02-24 13:59:00,67.4,16.6,30.05,East,91,8.0,14.0,14,0.00,,,0.00,664,HR-IXPWINDi_r2_v1.2.,2013-02-24 21:59:00,
2013-02-24 14:04:00,67.8,16.9,30.05,SSE,157,3.0,13.0,14,0.00,,,0.00,656,HR-IXPWINDi_r2_v1.2.,2013-02-24 22:04:00,
2013-02-24 14:10:00,67.3,14.8,30.05,East,100,3.0,13.0,13,0.00,,,0.00,643,HR-IXPWINDi_r2_v1.2.,2013-02-24 22:10:00,
2013-02-24 14:15:00,67.9,21.5,30.04,ESE,115,8.0,13.0,17,0.00,,,0.00,629,HR-IXPWINDi_r2_v1.2.,2013-02-24 22:15:00,
2013-02-24 14:20:00,68.6,19.1,30.04,East,98,6.0,13.0,15,0.00,,,0.00,619,HR-IXPWINDi_r2_v1.2.,2013-02-24 22:20:00,
2013-02-24 14:25:00,68.1,17.1,30.05,East,101,5.0,13.0,14,0.00,,,0.00,606,HR-IXPWINDi_r2_v1.2.,2013-02-24 22:25:00,
2013-02-24 14:31:00,67.7,15.1,30.04,NNE,13,4.0,12.0,13,0.00,,,0.00,596,HR-IXPWINDi_r2_v1.2.,2013-02-24 22:31:00,
2013-02-24 14:36:00,68.0,17.0,30.05,East,99,7.0,12.0,14,0.00,,,0.00,582,HR-IXPWINDi_r2_v1.2.,2013-02-24 22:36:00,
2013-02-24 14:41:00,68.2,18.8,30.05,South,186,5.0,11.0,15,0.00,,,0.00,570,HR-IXPWINDi_r2_v1.2.,2013-02-24 22:41:00,
2013-02-24 14:46:00,68.3,17.3,30.05,East,86,6.0,9.0,14,0.00,,,0.00,555,HR-IXPWINDi_r2_v1.2.,2013-02-24 22:46:00,
2013-02-24 14:51:00,68.1,17.1,30.04,ESE,119,5.0,15.0,14,0.00,,,0.00,545,HR-IXPWINDi_r2_v1.2.,2013-02-24 22:51:00,
2013-02-24 14:56:00,68.2,17.2,30.05,NE,55,2.0,15.0,14,0.00,,,0.00,526,HR-IXPWINDi_r2_v1.2.,2013-02-24 22:56:00,
2013-02-24 15:02:00,67.2,12.9,30.05,ENE,72,5.0,14.0,12,0.00,,,0.00,510,HR-IXPWINDi_r2_v1.2.,2013-02-24 23:02:00,
2013-02-24 15:07:00,67.0,16.3,30.04,ENE,65,7.0,14.0,14,0.00,,,0.00,494,HR-IXPWINDi_r2_v1.2.,2013-02-24 23:07:00,
2013-02-24 15:12:00,67.5,16.7,30.05,NE,38,3.0,14.0,14,0.00,,,0.00,478,HR-IXPWINDi_r2_v1.2.,2013-02-24 23:12:00,
2013-02-24 15:17:00,68.1,15.4,30.05,SE,126,10.0,14.0,13,0.00,,,0.00,464,HR-IXPWINDi_r2_v1.2.,2013-02-24 23:17:00,
2013-02-24 15:23:00,67.5,16.7,30.05,NE,38,4.0,11.0,14,0.00,,,0.00,448,HR-IXPWINDi_r2_v1.2.,2013-02-24 23:23:00,
2013-02-24 15:28:00,67.3,13.0,30.05,NE,51,1.0,13.0,12,0.00,,,0.00,434,HR-IXPWINDi_r2_v1.2.,2013-02-24 23:28:00,
2013-02-24 15:33:00,67.3,16.5,30.05,ESE,105,5.0,13.0,14,0.00,,,0.00,413,HR-IXPWINDi_r2_v1.2.,2013-02-24 23:33:00,
2013-02-24 15:38:00,67.0,16.3,30.05,SE,129,3.0,14.0,14,0.00,,,0.00,396,HR-IXPWINDi_r2_v1.2.,2013-02-24 23:38:00,
2013-02-24 15:44:00,66.8,14.4,30.05,East,83,5.0,14.0,13,0.00,,,0.00,380,HR-IXPWINDi_r2_v1.2.,2013-02-24 23:44:00,
2013-02-24 15:49:00,66.6,14.2,30.05,ENE,69,3.0,14.0,13,0.00,,,0.00,362,HR-IXPWINDi_r2_v1.2.,2013-02-24 23:49:00,
2013-02-24 15:54:00,66.5,14.2,30.05,East,89,2.0,14.0,13,0.00,,,0.00,345,HR-IXPWINDi_r2_v1.2.,2013-02-24 23:54:00,
2013-02-24 15:59:00,66.5,15.9,30.05,South,184,9.0,14.0,14,0.00,,,0.00,327,HR-IXPWINDi_r2_v1.2.,2013-02-24 23:59:00,
2013-02-24 16:05:00,66.3,14.0,30.05,North,5,7.0,10.0,13,0.00,,,0.00,309,HR-IXPWINDi_r2_v1.2.,2013-02-25 00:05:00,
2013-02-24 16:10:00,66.0,13.8,30.05,East,93,3.0,11.0,13,0.00,,,0.00,290,HR-IXPWINDi_r2_v1.2.,2013-02-25 00:10:00,
2013-02-24 16:15:00,65.4,22.1,30.05,NNW,344,2.0,11.0,19,0.00,,,0.00,260,HR-IXPWINDi_r2_v1.2.,2013-02-25 00:15:00,
2013-02-24 16:20:00,64.9,26.2,30.05,NW,311,7.0,10.0,23,0.00,,,0.00,58,HR-IXPWINDi_r2_v1.2.,2013-02-25 00:20:00,
2013-02-24 16:25:00,64.1,26.6,30.05,NNW,329,4.0,9.0,24,0.00,,,0.00,37,HR-IXPWINDi_r2_v1.2.,2013-02-25 00:25:00,
2013-02-24 16:30:00,63.3,26.9,30.06,North,355,1.0,9.0,25,0.00,,,0.00,35,HR-IXPWINDi_r2_v1.2.,2013-02-25 00:30:00,
2013-02-24 16:36:00,62.7,25.4,30.06,NE,52,1.0,6.0,24,0.00,,,0.00,32,HR-IXPWINDi_r2_v1.2.,2013-02-25 00:36:00,
2013-02-24 16:41:00,62.0,26.7,30.06,NNW,343,1.0,7.0,26,0.00,,,0.00,26,HR-IXPWINDi_r2_v1.2.,2013-02-25 00:41:00,
2013-02-24 16:46:00,61.1,25.9,30.06,NNE,15,5.0,7.0,26,0.00,,,0.00,23,HR-IXPWINDi_r2_v1.2.,2013-02-25 00:46:00,
2013-02-24 16:51:00,60.7,26.5,30.06,NW,311,2.0,6.0,27,0.00,,,0.00,21,HR-IXPWINDi_r2_v1.2.,2013-02-25 00:51:00,
2013-02-24 16:56:00,60.4,26.3,30.06,NNW,343,0.0,6.0,27,0.00,,,0.00,21,HR-IXPWINDi_r2_v1.2.,2013-02-25 00:56:00,
2013-02-24 17:02:00,59.9,26.7,30.06,NW,316,2.0,4.0,28,0.00,,,0.00,19,HR-IXPWINDi_r2_v1.2.,2013-02-25 01:02:00,
2013-02-24 17:07:00,59.0,25.9,30.07,NW,316,2.0,3.0,28,0.00,,,0.00,18,HR-IXPWINDi_r2_v1.2.,2013-02-25 01:07:00,
2013-02-24 17:12:00,58.2,26.1,30.07,NW,316,1.0,2.0,29,0.00,,,0.00,18,HR-IXPWINDi_r2_v1.2.,2013-02-25 01:12:00,
2013-02-24 17:17:00,57.1,26.7,30.07,NW,316,0.0,2.0,31,0.00,,,0.00,16,HR-IXPWINDi_r2_v1.2.,2013-02-25 01:17:00,
2013-02-24 17:22:00,56.1,27.4,30.07,NW,316,0.0,2.0,33,0.00,,,0.00,14,HR-IXPWINDi_r2_v1.2.,2013-02-25 01:22:00,
2013-02-24 17:27:00,54.7,28.9,30.08,NW,316,1.0,2.0,37,0.00,,,0.00,12,HR-IXPWINDi_r2_v1.2.,2013-02-25 01:27:00,
2013-02-24 17:33:00,53.5,29.1,30.08,NW,316,0.0,2.0,39,0.00,,,0.00,11,HR-IXPWINDi_r2_v1.2.,2013-02-25 01:33:00,
2013-02-24 17:38:00,53.1,28.8,30.08,NW,316,0.0,1.0,39,0.00,,,0.00,9,HR-IXPWINDi_r2_v1.2.,2013-02-25 01:38:00,
2013-02-24 17:43:00,52.1,28.5,30.08,NW,316,2.0,2.0,40,0.00,,,0.00,7,HR-IXPWINDi_r2_v1.2.,2013-02-25 01:43:00,
2013-02-24 17:48:00,51.8,28.2,30.08,NW,316,2.0,2.0,40,0.00,,,0.00,0,HR-IXPWINDi_r2_v1.2.,2013-02-25 01:48:00,
2013-02-24 17:53:00,53.0,26.7,30.08,NW,310,1.0,3.0,36,0.00,,,0.00,0,HR-IXPWINDi_r2_v1.2.,2013-02-25 01:53:00,
2013-02-24 17:59:00,52.2,27.3,30.08,NW,310,0.0,3.0,38,0.00,,,0.00,0,HR-IXPWINDi_r2_v1.2.,2013-02-25 01:59:00,
2013-02-24 18:04:00,51.2,28.9,30.09,NW,310,0.0,1.0,42,0.00,,,0.00,0,HR-IXPWINDi_r2_v1.2.,2013-02-25 02:04:00,
2013-02-24 18:09:00,50.6,28.9,30.09,NW,310,1.0,1.0,43,0.00,,,0.00,0,HR-IXPWINDi_r2_v1.2.,2013-02-25 02:09:00,
2013-02-24 18:14:00,50.8,27.9,30.09,NW,310,0.0,2.0,41,0.00,,,0.00,0,HR-IXPWINDi_r2_v1.2.,2013-02-25 02:14:00,
2013-02-24 18:19:00,50.0,28.4,30.10,NW,310,1.0,2.0,43,0.00,,,0.00,0,HR-IXPWINDi_r2_v1.2.,2013-02-25 02:19:00,
2013-02-24 18:25:00,48.6,30.3,30.10,NW,310,2.0,2.0,49,0.00,,,0.00,0,HR-IXPWINDi_r2_v1.2.,2013-02-25 02:25:00,
2013-02-24 18:30:00,48.3,30.0,30.10,NW,310,1.0,2.0,49,0.00,,,0.00,0,HR-IXPWINDi_r2_v1.2.,2013-02-25 02:30:00,
2013-02-24 18:35:00,48.0,29.2,30.11,NW,310,1.0,3.0,48,0.00,,,0.00,0,HR-IXPWINDi_r2_v1.2.,2013-02-25 02:35:00,
2013-02-24 18:40:00,49.1,27.5,30.11,NW,315,2.0,4.0,43,0.00,,,0.00,0,HR-IXPWINDi_r2_v1.2.,2013-02-25 02:40:00,
2013-02-24 18:45:00,49.4,28.4,30.11,NNW,337,2.0,4.0,44,0.00,,,0.00,0,HR-IXPWINDi_r2_v1.2.,2013-02-25 02:45:00,
2013-02-24 18:50:00,49.2,28.2,30.11,NNW,337,1.0,3.0,44,0.00,,,0.00,0,HR-IXPWINDi_r2_v1.2.,2013-02-25 02:50:00,
2013-02-24 18:55:00,48.8,27.8,30.12,NNW,337,1.0,3.0,44,0.00,,,0.00,0,HR-IXPWINDi_r2_v1.2.,2013-02-25 02:55:00,
2013-02-24 19:00:00,48.1,27.7,30.12,NW,309,1.0,3.0,45,0.00,,,0.00,0,HR-IXPWINDi_r2_v1.2.,2013-02-25 03:00:00,
2013-02-24 19:06:00,48.1,27.7,30.11,NW,309,2.0,3.0,45,0.00,,,0.00,0,HR-IXPWINDi_r2_v1.2.,2013-02-25 03:06:00,
2013-02-24 19:11:00,48.0,28.2,30.11,NW,308,2.0,3.0,46,0.00,,,0.00,0,HR-IXPWINDi_r2_v1.2.,2013-02-25 03:11:00,
2013-02-24 19:16:00,48.2,27.3,30.11,WNW,296,3.0,4.0,44,0.00,,,0.00,0,HR-IXPWINDi_r2_v1.2.,2013-02-25 03:16:00,
2013-02-24 19:21:00,49.3,27.2,30.12,NW,311,1.0,4.0,42,0.00,,,0.00,0,HR-IXPWINDi_r2_v1.2.,2013-02-25 03:21:00,
2013-02-24 19:26:00,48.9,27.4,30.12,NW,311,2.0,3.0,43,0.00,,,0.00,0,HR-IXPWINDi_r2_v1.2.,2013-02-25 03:26:00,
2013-02-24 19:31:00,48.5,28.1,30.12,NW,313,2.0,3.0,45,0.00,,,0.00,0,HR-IXPWINDi_r2_v1.2.,2013-02-25 03:31:00,
2013-02-24 19:36:00,48.2,27.8,30.12,NW,313,2.0,4.0,45,0.00,,,0.00,0,HR-IXPWINDi_r2_v1.2.,2013-02-25 03:36:00,
2013-02-24 19:42:00,48.0,27.1,30.12,NW,317,1.0,4.0,44,0.00,,,0.00,0,HR-IXPWINDi_r2_v1.2.,2013-02-25 03:42:00,
2013-02-24 19:47:00,47.9,27.0,30.12,NW,311,0.0,3.0,44,0.00,,,0.00,0,HR-IXPWINDi_r2_v1.2.,2013-02-25 03:47:00,
2013-02-24 19:52:00,47.3,27.0,30.13,NW,317,1.0,3.0,45,0.00,,,0.00,0,HR-IXPWINDi_r2_v1.2.,2013-02-25 03:52:00,
2013-02-24 19:57:00,47.1,27.4,30.13,NW,317,1.0,3.0,46,0.00,,,0.00,0,HR-IXPWINDi_r2_v1.2.,2013-02-25 03:57:00,
2013-02-24 20:02:00,46.9,26.1,30.13,NW,317,0.0,2.0,44,0.00,,,0.00,0,HR-IXPWINDi_r2_v1.2.,2013-02-25 04:02:00,
2013-02-24 20:07:00,45.9,28.3,30.14,NW,317,0.0,2.0,50,0.00,,,0.00,0,HR-IXPWINDi_r2_v1.2.,2013-02-25 04:07:00,
2013-02-24 20:13:00,45.6,26.5,30.14,NW,317,1.0,3.0,47,0.00,,,0.00,0,HR-IXPWINDi_r2_v1.2.,2013-02-25 04:13:00,
2013-02-24 20:18:00,44.5,27.5,30.14,NW,317,0.0,3.0,51,0.00,,,0.00,0,HR-IXPWINDi_r2_v1.2.,2013-02-25 04:18:00,
2013-02-24 20:23:00,45.0,27.0,30.14,NNW,332,1.0,3.0,49,0.00,,,0.00,0,HR-IXPWINDi_r2_v1.2.,2013-02-25 04:23:00,
2013-02-24 20:28:00,45.7,26.1,30.15,NNW,329,0.0,3.0,46,0.00,,,0.00,0,HR-IXPWINDi_r2_v1.2.,2013-02-25 04:28:00,
2013-02-24 20:33:00,45.2,26.1,30.15,NNW,329,1.0,3.0,47,0.00,,,0.00,0,HR-IXPWINDi_r2_v1.2.,2013-02-25 04:33:00,
2013-02-24 20:38:00,44.7,26.2,30.15,NW,318,1.0,5.0,48,0.00,,,0.00,0,HR-IXPWINDi_r2_v1.2.,2013-02-25 04:38:00,
2013-02-24 20:43:00,44.5,27.9,30.15,NNW,336,3.0,5.0,52,0.00,,,0.00,0,HR-IXPWINDi_r2_v1.2.,2013-02-25 04:43:00,
2013-02-24 20:49:00,45.6,26.0,30.16,NW,321,2.0,4.0,46,0.00,,,0.00,0,HR-IXPWINDi_r2_v1.2.,2013-02-25 04:49:00,
2013-02-24 20:54:00,45.5,25.4,30.16,NW,317,0.0,4.0,45,0.00,,,0.00,0,HR-IXPWINDi_r2_v1.2.,2013-02-25 04:54:00,
2013-02-24 20:59:00,45.4,24.7,30.16,WNW,296,4.0,6.0,44,0.00,,,0.00,0,HR-IXPWINDi_r2_v1.2.,2013-02-25 04:59:00,
2013-02-24 21:00:00,45.5,24.8,30.16,WNW,290,5.0,6.0,44,0.00,,,0.00,0,HR-IXPWINDi_r2_v1.2.,2013-02-25 05:00:00,
2013-02-24 21:05:00,46.1,24.8,30.16,WNW,296,0.0,6.0,43,0.00,,,0.00,0,HR-IXPWINDi_r2_v1.2.,2013-02-25 05:05:00,
2013-02-24 21:10:00,44.7,26.7,30.17,WNW,296,1.0,5.0,49,0.00,,,0.00,0,HR-IXPWINDi_r2_v1.2.,2013-02-25 05:10:00,
2013-02-24 21:15:00,44.5,26.0,30.16,NW,306,3.0,3.0,48,0.00,,,0.00,0,HR-IXPWINDi_r2_v1.2.,2013-02-25 05:15:00,
2013-02-24 21:20:00,44.7,26.2,30.17,NW,313,2.0,3.0,48,0.00,,,0.00,0,HR-IXPWINDi_r2_v1.2.,2013-02-25 05:20:00,
2013-02-24 21:26:00,44.9,25.9,30.17,NW,322,2.0,3.0,47,0.00,,,0.00,0,HR-IXPWINDi_r2_v1.2.,2013-02-25 05:26:00,
2013-02-24 21:31:00,44.4,25.9,30.18,NNW,344,2.0,4.0,48,0.00,,,0.00,0,HR-IXPWINDi_r2_v1.2.,2013-02-25 05:31:00,
2013-02-24 21:36:00,45.0,23.8,30.18,NW,324,3.0,6.0,43,0.00,,,0.00,0,HR-IXPWINDi_r2_v1.2.,2013-02-25 05:36:00,
2013-02-24 21:41:00,45.8,24.0,30.18,NW,323,2.0,6.0,42,0.00,,,0.00,0,HR-IXPWINDi_r2_v1.2.,2013-02-25 05:41:00,
2013-02-24 21:46:00,45.6,23.8,30.18,NNW,330,1.0,3.0,42,0.00,,,0.00,0,HR-IXPWINDi_r2_v1.2.,2013-02-25 05:46:00,
2013-02-24 21:52:00,44.9,23.7,30.18,NNW,336,1.0,3.0,43,0.00,,,0.00,0,HR-IXPWINDi_r2_v1.2.,2013-02-25 05:52:00,
2013-02-24 21:57:00,44.2,23.7,30.18,NNW,336,1.0,3.0,44,0.00,,,0.00,0,HR-IXPWINDi_r2_v1.2.,2013-02-25 05:57:00,
2013-02-24 22:03:00,44.0,24.5,30.18,NNW,336,1.0,4.0,46,0.00,,,0.00,0,HR-IXPWINDi_r2_v1.2.,2013-02-25 06:03:00,
2013-02-24 22:08:00,44.7,23.6,30.18,NNW,342,1.0,4.0,43,0.00,,,0.00,0,HR-IXPWINDi_r2_v1.2.,2013-02-25 06:08:00,
2013-02-24 22:13:00,45.5,24.3,30.18,NW,312,1.0,4.0,43,0.00,,,0.00,0,HR-IXPWINDi_r2_v1.2.,2013-02-25 06:13:00,
2013-02-24 22:18:00,44.2,24.2,30.19,NW,313,2.0,4.0,45,0.00,,,0.00,0,HR-IXPWINDi_r2_v1.2.,2013-02-25 06:18:00,
2013-02-24 22:24:00,43.3,25.9,30.18,NW,313,0.0,3.0,50,0.00,,,0.00,0,HR-IXPWINDi_r2_v1.2.,2013-02-25 06:24:00,
2013-02-24 22:29:00,42.7,24.9,30.19,NW,313,2.0,3.0,49,0.00,,,0.00,0,HR-IXPWINDi_r2_v1.2.,2013-02-25 06:29:00,
2013-02-24 22:34:00,42.4,25.1,30.19,NW,313,0.0,3.0,50,0.00,,,0.00,0,HR-IXPWINDi_r2_v1.2.,2013-02-25 06:34:00,
2013-02-24 22:39:00,42.1,24.8,30.18,NW,306,1.0,3.0,50,0.00,,,0.00,0,HR-IXPWINDi_r2_v1.2.,2013-02-25 06:39:00,
2013-02-24 22:45:00,43.0,23.6,30.18,NW,321,2.0,6.0,46,0.00,,,0.00,0,HR-IXPWINDi_r2_v1.2.,2013-02-25 06:45:00,
2013-02-24 22:50:00,43.8,23.8,30.18,NNW,331,3.0,6.0,45,0.00,,,0.00,0,HR-IXPWINDi_r2_v1.2.,2013-02-25 06:50:00,
2013-02-24 22:55:00,44.1,23.0,30.18,NNW,329,2.0,4.0,43,0.00,,,0.00,0,HR-IXPWINDi_r2_v1.2.,2013-02-25 06:55:00,
2013-02-24 23:00:00,44.5,22.8,30.18,NW,318,3.0,5.0,42,0.00,,,0.00,0,HR-IXPWINDi_r2_v1.2.,2013-02-25 07:00:00,
2013-02-24 23:05:00,44.6,21.8,30.18,NW,321,3.0,5.0,40,0.00,,,0.00,0,HR-IXPWINDi_r2_v1.2.,2013-02-25 07:05:00,
2013-02-24 23:11:00,44.6,22.9,30.18,NNW,343,2.0,6.0,42,0.00,,,0.00,0,HR-IXPWINDi_r2_v1.2.,2013-02-25 07:11:00,
2013-02-24 23:16:00,44.3,21.5,30.18,WNW,289,1.0,6.0,40,0.00,,,0.00,0,HR-IXPWINDi_r2_v1.2.,2013-02-25 07:16:00,
2013-02-24 23:21:00,45.6,21.5,30.18,WNW,296,5.0,7.0,38,0.00,,,0.00,0,HR-IXPWINDi_r2_v1.2.,2013-02-25 07:21:00,
2013-02-24 23:26:00,46.6,22.3,30.18,NW,319,2.0,7.0,38,0.00,,,0.00,0,HR-IXPWINDi_r2_v1.2.,2013-02-25 07:26:00,
2013-02-24 23:32:00,45.5,21.4,30.18,NNW,333,1.0,7.0,38,0.00,,,0.00,0,HR-IXPWINDi_r2_v1.2.,2013-02-25 07:32:00,
2013-02-24 23:37:00,45.6,21.5,30.18,NW,315,1.0,3.0,38,0.00,,,0.00,0,HR-IXPWINDi_r2_v1.2.,2013-02-25 07:37:00,
2013-02-24 23:42:00,45.2,21.7,30.19,NW,315,2.0,5.0,39,0.00,,,0.00,0,HR-IXPWINDi_r2_v1.2.,2013-02-25 07:42:00,
2013-02-24 23:47:00,45.3,21.2,30.19,South,171,2.0,5.0,38,0.00,,,0.00,0,HR-IXPWINDi_r2_v1.2.,2013-02-25 07:47:00,
2013-02-24 23:52:00,44.7,21.3,30.20,SSW,198,2.0,3.0,39,0.00,,,0.00,0,HR-IXPWINDi_r2_v1.2.,2013-02-25 07:52:00,
2013-02-24 23:57:00,44.2,22.0,30.19,SSW,211,0.0,3.0,41,0.00,,,0.00,0,HR-IXPWINDi_r2_v1.2.,2013-02-25 07:57:00,